createdAt,value
2023-04-05T00:01:51.041Z,1.52
2023-04-05T00:04:24.513Z,1.25
2023-04-05T00:06:54.833Z,1.63
2023-04-05T00:09:23.856Z,1.30
2023-04-05T00:11:52.892Z,1.58
2023-04-05T00:14:21.929Z,1.52
2023-04-05T00:16:52.715Z,1.60
2023-04-05T00:19:24.037Z,2.00
2023-04-05T00:21:55.348Z,4.55
2023-04-05T00:24:25.178Z,1.73
2023-04-05T00:26:54.148Z,1.80
2023-04-05T00:29:23.089Z,1.90
2023-04-05T00:31:53.780Z,1.88
2023-04-05T00:34:22.886Z,1.80
2023-04-05T00:36:51.853Z,1.73
2023-04-05T00:39:20.854Z,1.40
2023-04-05T00:41:49.820Z,1.58
2023-04-05T00:44:18.872Z,1.80
2023-04-05T00:46:47.976Z,1.60
2023-04-05T00:49:19.596Z,1.50
2023-04-05T00:51:49.499Z,1.40
2023-04-05T00:54:19.661Z,1.70
2023-04-05T00:56:48.738Z,1.80
2023-04-05T00:59:17.809Z,1.58
2023-04-05T01:01:55.926Z,1.70
2023-04-05T01:04:31.359Z,1.50
2023-04-05T01:07:08.997Z,1.90
2023-04-05T01:09:53.457Z,2.10
2023-04-05T01:12:25.441Z,2.00
2023-04-05T01:14:56.763Z,1.73
2023-04-05T01:17:29.137Z,1.60
2023-04-05T01:20:09.879Z,1.60
2023-04-05T01:23:15.799Z,1.50
2023-04-05T01:26:06.911Z,1.77
2023-04-05T01:29:29.215Z,1.55
2023-04-05T01:32:04.738Z,1.58
2023-04-05T01:34:49.841Z,2.00
2023-04-05T01:37:23.566Z,1.77
2023-04-05T01:39:53.167Z,1.98
2023-04-05T01:42:28.646Z,1.90
2023-04-05T01:44:59.450Z,1.65
2023-04-05T01:47:30.256Z,1.65
2023-04-05T01:49:59.249Z,1.67
2023-04-05T01:52:28.214Z,1.85
2023-04-05T01:54:57.252Z,1.80
2023-04-05T01:57:26.320Z,1.98
2023-04-05T01:59:55.277Z,1.50
2023-04-05T02:02:24.384Z,1.85
2023-04-05T02:04:55.012Z,2.05
2023-04-05T02:07:25.264Z,1.75
2023-04-05T02:09:54.261Z,1.80
2023-04-05T02:12:23.644Z,1.52
2023-04-05T02:14:53.514Z,1.70
2023-04-05T02:17:26.139Z,1.60
2023-04-05T02:20:03.050Z,1.33
2023-04-05T02:22:32.212Z,1.73
2023-04-05T02:25:02.050Z,1.45
2023-04-05T02:27:31.279Z,1.95
2023-04-05T02:30:00.235Z,1.63
2023-04-05T02:32:29.449Z,1.60
2023-04-05T02:35:00.198Z,1.80
2023-04-05T02:37:29.162Z,1.52
2023-04-05T02:39:58.127Z,1.92
2023-04-05T02:42:27.208Z,1.70
2023-04-05T02:44:56.678Z,1.60
2023-04-05T02:47:25.792Z,1.85
2023-04-05T02:49:55.036Z,1.75
2023-04-05T02:52:25.678Z,1.77
2023-04-05T02:54:54.741Z,1.80
2023-04-05T02:57:23.837Z,1.58
2023-04-05T02:59:53.009Z,1.83
2023-04-05T03:02:22.827Z,1.80
2023-04-05T03:04:57.373Z,1.90
2023-04-05T03:07:28.724Z,1.83
2023-04-05T03:09:59.012Z,1.70
2023-04-05T03:12:28.050Z,1.88
2023-04-05T03:14:57.200Z,2.00
2023-04-05T03:17:26.750Z,2.00
2023-04-05T03:19:55.757Z,1.85
2023-04-05T03:22:24.749Z,1.70
2023-04-05T03:24:55.829Z,1.88
2023-04-05T03:27:24.786Z,1.85
2023-04-05T03:29:53.783Z,1.90
2023-04-05T03:32:22.776Z,2.00
2023-04-05T03:34:52.246Z,2.38
2023-04-05T03:37:21.373Z,2.10
2023-04-05T03:39:50.396Z,2.10
2023-04-05T03:42:21.134Z,2.17
2023-04-05T03:44:53.923Z,1.95
2023-04-05T03:47:22.958Z,2.17
2023-04-05T03:49:52.025Z,1.90
2023-04-05T03:52:21.252Z,2.15
2023-04-05T03:54:50.204Z,2.03
2023-04-05T03:57:21.500Z,1.80
2023-04-05T03:59:50.592Z,2.13
2023-04-05T04:02:19.624Z,2.00
2023-04-05T04:04:48.800Z,1.90
2023-04-05T04:07:17.934Z,1.90
2023-04-05T04:09:46.905Z,1.73
2023-04-05T04:12:16.093Z,1.88
2023-04-05T04:14:46.872Z,2.00
2023-04-05T04:17:28.836Z,2.03
2023-04-05T04:19:58.659Z,2.17
2023-04-05T04:22:33.934Z,2.50
2023-04-05T04:25:06.103Z,2.50
2023-04-05T04:27:36.628Z,1.98
2023-04-05T04:30:10.912Z,2.30
2023-04-05T04:32:55.988Z,2.20
2023-04-05T04:35:28.631Z,2.42
2023-04-05T04:38:01.572Z,2.33
2023-04-05T04:40:33.288Z,2.20
2023-04-05T04:43:02.557Z,2.80
2023-04-05T04:45:38.555Z,2.50
2023-04-05T04:48:09.016Z,2.65
2023-04-05T04:50:38.530Z,2.35
2023-04-05T04:53:08.188Z,2.60
2023-04-05T04:55:37.153Z,2.10
2023-04-05T04:58:10.672Z,2.40
2023-04-05T05:00:45.234Z,2.60
2023-04-05T05:03:15.038Z,2.50
2023-04-05T05:05:47.805Z,2.42
2023-04-05T05:08:18.878Z,2.80
2023-04-05T05:10:54.200Z,2.15
2023-04-05T05:13:23.217Z,2.80
2023-04-05T05:15:53.868Z,2.55
2023-04-05T05:18:22.949Z,2.40
2023-04-05T05:20:53.532Z,2.08
2023-04-05T05:23:23.245Z,2.20
2023-04-05T05:25:52.785Z,2.30
2023-04-05T05:28:26.212Z,2.15
2023-04-05T05:30:57.448Z,1.98
2023-04-05T05:33:27.029Z,2.10
2023-04-05T05:35:56.051Z,2.17
2023-04-05T05:38:25.200Z,2.20
2023-04-05T05:40:58.048Z,2.15
2023-04-05T05:43:27.030Z,2.28
2023-04-05T05:46:01.702Z,2.03
2023-04-05T05:48:30.763Z,2.10
2023-04-05T05:51:03.855Z,2.08
2023-04-05T05:53:32.891Z,2.10
2023-04-05T05:56:02.301Z,2.50
2023-04-05T05:58:31.349Z,2.60
2023-04-05T06:01:02.129Z,2.80
2023-04-05T06:03:31.456Z,2.50
2023-04-05T06:06:01.053Z,2.40
2023-04-05T06:08:30.121Z,2.50
2023-04-05T06:10:59.392Z,2.47
2023-04-05T06:13:28.528Z,2.92
2023-04-05T06:15:58.038Z,2.50
2023-04-05T06:18:28.736Z,2.90
2023-04-05T06:20:57.823Z,2.40
2023-04-05T06:23:26.928Z,2.50
2023-04-05T06:25:57.772Z,2.67
2023-04-05T06:28:26.731Z,2.83
2023-04-05T06:30:56.841Z,2.53
2023-04-05T06:33:27.715Z,2.60
2023-04-05T06:35:56.996Z,2.58
2023-04-05T06:38:26.027Z,2.22
2023-04-05T06:40:55.012Z,2.45
2023-04-05T06:43:23.999Z,2.60
2023-04-05T06:45:53.030Z,2.38
2023-04-05T06:48:22.578Z,2.47
2023-04-05T06:51:00.488Z,2.60
2023-04-05T06:53:29.707Z,2.70
2023-04-05T06:55:59.776Z,2.88
2023-04-05T06:58:29.061Z,2.50
2023-04-05T07:00:58.115Z,3.00
2023-04-05T07:03:27.414Z,2.50
2023-04-05T07:05:58.370Z,2.30
2023-04-05T07:08:30.253Z,2.90
2023-04-05T07:10:59.691Z,2.55
2023-04-05T07:13:28.944Z,2.58
2023-04-05T07:16:02.524Z,2.60
2023-04-05T07:18:31.604Z,2.80
2023-04-05T07:21:01.611Z,2.80
2023-04-05T07:23:32.634Z,2.90
2023-04-05T07:26:08.270Z,3.03
2023-04-05T07:28:37.730Z,2.17
2023-04-05T07:31:08.253Z,2.53
2023-04-05T07:33:37.304Z,2.80
2023-04-05T07:36:06.867Z,2.58
2023-04-05T07:38:37.599Z,2.53
2023-04-05T07:41:06.902Z,2.55
2023-04-05T07:43:35.917Z,2.70
2023-04-05T07:46:05.550Z,3.00
2023-04-05T07:48:34.665Z,2.70
2023-04-05T07:51:08.186Z,3.17
2023-04-05T07:53:39.176Z,2.58
2023-04-05T07:56:09.367Z,3.17
2023-04-05T07:58:42.923Z,2.97
2023-04-05T08:01:12.808Z,3.13
2023-04-05T08:03:41.960Z,2.47
2023-04-05T08:06:15.416Z,2.90
2023-04-05T08:08:46.348Z,2.38
2023-04-05T08:11:15.364Z,2.78
2023-04-05T08:13:44.647Z,3.15
2023-04-05T08:16:13.877Z,2.70
2023-04-05T08:18:42.966Z,2.40
2023-04-05T08:21:12.199Z,2.38
2023-04-05T08:23:41.377Z,2.33
2023-04-05T08:26:12.186Z,2.55
2023-04-05T08:28:41.210Z,2.70
2023-04-05T08:31:11.234Z,2.33
2023-04-05T08:33:42.281Z,2.33
2023-04-05T08:36:12.574Z,2.20
2023-04-05T08:38:41.719Z,2.45
2023-04-05T08:41:20.101Z,2.30
2023-04-05T08:43:58.589Z,2.83
2023-04-05T08:46:28.384Z,2.35
2023-04-05T08:48:59.092Z,2.58
2023-04-05T08:51:29.109Z,2.33
2023-04-05T08:53:58.230Z,2.28
2023-04-05T08:56:34.515Z,2.40
2023-04-05T08:59:06.204Z,2.30
2023-04-05T09:01:38.188Z,2.40
2023-04-05T09:04:08.846Z,2.33
2023-04-05T09:06:38.215Z,2.65
2023-04-05T09:09:09.298Z,2.45
2023-04-05T09:11:40.865Z,2.88
2023-04-05T09:14:10.215Z,2.40
2023-04-05T09:16:40.548Z,2.70
2023-04-05T09:19:10.023Z,2.45
2023-04-05T09:22:01.610Z,2.30
2023-04-05T09:24:36.198Z,2.80
2023-04-05T09:27:10.798Z,2.63
2023-04-05T09:29:40.890Z,2.20
2023-04-05T09:32:10.748Z,2.78
2023-04-05T09:34:40.849Z,2.55
2023-04-05T09:37:15.410Z,2.85
2023-04-05T09:39:45.033Z,2.40
2023-04-05T09:42:16.807Z,2.50
2023-04-05T09:44:53.473Z,2.78
2023-04-05T09:47:23.207Z,2.30
2023-04-05T09:49:52.730Z,2.60
2023-04-05T09:52:25.676Z,2.65
2023-04-05T09:54:59.190Z,2.65
2023-04-05T09:57:31.461Z,2.45
2023-04-05T10:00:00.548Z,2.70
2023-04-05T10:02:38.924Z,2.72
2023-04-05T10:05:09.404Z,2.55
2023-04-05T10:07:39.154Z,2.35
2023-04-05T10:10:09.304Z,2.40
2023-04-05T10:12:42.470Z,2.70
2023-04-05T10:15:14.882Z,2.10
2023-04-05T10:17:52.522Z,2.50
2023-04-05T10:20:22.941Z,2.63
2023-04-05T10:23:08.813Z,2.28
2023-04-05T10:25:56.772Z,2.40
2023-04-05T10:28:33.634Z,2.97
2023-04-05T10:31:13.189Z,2.60
2023-04-05T10:33:48.445Z,2.20
2023-04-05T10:36:24.054Z,2.30
2023-04-05T10:39:02.948Z,2.40
2023-04-05T10:41:35.433Z,2.63
2023-04-05T10:44:22.628Z,2.50
2023-04-05T10:46:57.708Z,2.60
2023-04-05T10:49:37.304Z,2.33
2023-04-05T10:52:07.433Z,2.72
2023-04-05T10:54:39.793Z,2.58
2023-04-05T10:57:10.992Z,2.53
2023-04-05T10:59:46.519Z,2.65
2023-04-05T11:02:17.647Z,2.22
2023-04-05T11:04:46.884Z,3.10
2023-04-05T11:07:17.654Z,2.53
2023-04-05T11:09:56.944Z,2.90
2023-04-05T11:13:03.192Z,2.85
2023-04-05T11:15:35.240Z,2.50
2023-04-05T11:18:12.402Z,2.80
2023-04-05T11:20:49.812Z,2.53
2023-04-05T11:23:20.934Z,2.90
2023-04-05T11:25:52.896Z,2.67
2023-04-05T11:28:26.899Z,3.03
2023-04-05T11:30:59.538Z,2.97
2023-04-05T11:34:00.630Z,3.00
2023-04-05T11:36:39.413Z,2.50
2023-04-05T11:39:32.165Z,2.80
2023-04-05T11:42:05.510Z,2.60
2023-04-05T11:44:54.184Z,3.15
2023-04-05T11:47:24.920Z,3.17
2023-04-05T11:49:53.987Z,3.08
2023-04-05T11:52:23.470Z,2.70
2023-04-05T11:54:53.586Z,2.70
2023-04-05T11:57:24.018Z,2.70
2023-04-05T11:59:54.154Z,2.72
2023-04-05T12:02:24.871Z,2.88
2023-04-05T12:05:01.875Z,2.40
2023-04-05T12:07:33.719Z,2.97
2023-04-05T12:10:06.557Z,2.90
2023-04-05T12:12:37.191Z,3.00
2023-04-05T12:15:09.585Z,2.97
2023-04-05T12:17:48.181Z,2.60
2023-04-05T12:20:20.425Z,2.83
2023-04-05T12:22:50.877Z,2.92
2023-04-05T12:25:20.976Z,3.17
2023-04-05T12:27:50.165Z,2.53
2023-04-05T12:30:20.863Z,3.08
2023-04-05T12:32:53.778Z,2.83
2023-04-05T12:35:25.342Z,2.40
2023-04-05T12:37:54.524Z,3.08
2023-04-05T12:40:24.338Z,2.60
2023-04-05T12:42:53.634Z,2.92
2023-04-05T12:45:25.446Z,2.75
2023-04-05T12:48:00.384Z,2.53
2023-04-05T12:50:30.217Z,3.00
2023-04-05T12:53:00.461Z,2.80
2023-04-05T12:55:30.807Z,2.70
2023-04-05T12:58:02.477Z,2.60
2023-04-05T13:00:32.083Z,2.78
2023-04-05T13:03:02.793Z,2.90
2023-04-05T13:05:32.434Z,2.83
2023-04-05T13:08:01.569Z,3.20
2023-04-05T13:10:30.552Z,2.80
2023-04-05T13:12:59.760Z,2.83
2023-04-05T13:15:28.755Z,2.55
2023-04-05T13:17:57.930Z,3.00
2023-04-05T13:20:28.673Z,2.45
2023-04-05T13:22:57.666Z,2.60
2023-04-05T13:25:26.940Z,2.85
2023-04-05T13:27:56.104Z,3.10
2023-04-05T13:30:25.261Z,2.90
2023-04-05T13:32:54.293Z,2.80
2023-04-05T13:35:23.431Z,2.75
2023-04-05T13:37:54.065Z,3.50
2023-04-05T13:40:23.037Z,3.00
2023-04-05T13:42:52.156Z,2.72
2023-04-05T13:45:21.262Z,3.65
2023-04-05T13:47:50.313Z,3.28
2023-04-05T13:50:19.413Z,3.17
2023-04-05T13:52:48.441Z,3.22
2023-04-05T13:55:19.614Z,3.20
2023-04-05T13:57:48.821Z,3.40
2023-04-05T14:00:18.289Z,3.30
2023-04-05T14:02:47.514Z,3.67
2023-04-05T14:05:17.943Z,3.20
2023-04-05T14:07:47.358Z,3.30
2023-04-05T14:10:18.634Z,3.00
2023-04-05T14:12:47.590Z,3.30
2023-04-05T14:15:16.755Z,3.10
2023-04-05T14:17:46.078Z,3.88
2023-04-05T14:20:15.391Z,4.13
2023-04-05T14:22:44.405Z,3.70
2023-04-05T14:25:13.535Z,3.55
2023-04-05T14:27:44.238Z,4.03
2023-04-05T14:30:14.124Z,3.65
2023-04-05T14:32:43.524Z,3.67
2023-04-05T14:35:12.996Z,3.50
2023-04-05T14:37:42.006Z,3.40
2023-04-05T14:40:11.970Z,3.50
2023-04-05T14:42:49.236Z,3.72
2023-04-05T14:45:22.486Z,3.80
2023-04-05T14:47:51.569Z,3.58
2023-04-05T14:50:20.710Z,3.45
2023-04-05T14:52:49.836Z,4.32
2023-04-05T14:55:19.070Z,3.60
2023-04-05T14:57:49.897Z,3.53
2023-04-05T15:00:19.783Z,3.60
2023-04-05T15:02:49.915Z,3.10
2023-04-05T15:05:20.117Z,3.15
2023-04-05T15:07:49.270Z,2.83
2023-04-05T15:10:19.357Z,3.17
2023-04-05T15:12:50.308Z,2.92
2023-04-05T15:15:19.655Z,3.33
2023-04-05T15:17:48.682Z,3.20
2023-04-05T15:20:18.146Z,3.30
2023-04-05T15:22:47.221Z,3.13
2023-04-05T15:25:16.448Z,3.05
2023-04-05T15:27:45.927Z,3.00
2023-04-05T15:30:17.445Z,3.10
2023-04-05T15:32:46.687Z,3.03
2023-04-05T15:35:15.804Z,3.05
2023-04-05T15:37:44.898Z,3.10
2023-04-05T15:40:14.154Z,3.00
2023-04-05T15:42:43.181Z,2.75
2023-04-05T15:45:13.124Z,2.95
2023-04-05T15:47:44.375Z,3.15
2023-04-05T15:50:13.517Z,2.90
2023-04-05T15:52:42.627Z,2.55
2023-04-05T15:55:11.928Z,2.67
2023-04-05T15:57:41.106Z,2.47
2023-04-05T16:00:11.398Z,2.80
2023-04-05T16:02:40.614Z,2.70
2023-04-05T16:05:11.560Z,2.90
2023-04-05T16:07:40.669Z,2.92
2023-04-05T16:10:11.126Z,2.53
2023-04-05T16:12:40.350Z,2.70
2023-04-05T16:15:10.182Z,2.50
2023-04-05T16:17:39.357Z,2.50
2023-04-05T16:20:11.423Z,2.60
2023-04-05T16:22:41.018Z,2.60
2023-04-05T16:25:10.203Z,2.63
2023-04-05T16:27:39.806Z,2.85
2023-04-05T16:30:10.171Z,2.80
2023-04-05T16:32:39.346Z,2.50
2023-04-05T16:35:08.964Z,2.38
2023-04-05T16:37:39.777Z,2.60
2023-04-05T16:40:11.288Z,2.85
2023-04-05T16:42:40.570Z,2.55
2023-04-05T16:45:10.652Z,2.78
2023-04-05T16:47:39.724Z,2.70
2023-04-05T16:50:09.752Z,2.42
2023-04-05T16:52:40.770Z,2.70
2023-04-05T16:55:11.143Z,2.17
2023-04-05T16:57:41.356Z,2.58
2023-04-05T17:00:11.419Z,2.50
2023-04-05T17:02:40.570Z,2.30
2023-04-05T17:05:10.278Z,2.53
2023-04-05T17:07:42.289Z,2.78
2023-04-05T17:10:11.723Z,2.72
2023-04-05T17:12:43.017Z,2.72
2023-04-05T17:15:13.048Z,2.60
2023-04-05T17:17:42.331Z,2.42
2023-04-05T17:20:12.660Z,2.40
2023-04-05T17:22:43.497Z,2.28
2023-04-05T17:25:12.670Z,2.30
2023-04-05T17:27:41.748Z,2.20
2023-04-05T17:30:11.832Z,2.65
2023-04-05T17:32:41.090Z,2.40
2023-04-05T17:35:10.924Z,2.60
2023-04-05T17:37:40.061Z,2.53
2023-04-05T17:40:12.037Z,2.58
2023-04-05T17:42:41.110Z,2.78
2023-04-05T17:45:11.051Z,2.78
2023-04-05T17:47:40.723Z,3.00
2023-04-05T17:50:10.532Z,2.50
2023-04-05T17:52:39.652Z,2.60
2023-04-05T17:55:11.205Z,2.40
2023-04-05T17:57:40.243Z,2.65
2023-04-05T18:00:10.650Z,2.28
2023-04-05T18:02:41.595Z,2.40
2023-04-05T18:05:11.452Z,2.40
2023-04-05T18:07:40.644Z,2.60
2023-04-05T18:10:12.378Z,2.47
2023-04-05T18:12:41.458Z,2.70
2023-04-05T18:15:10.997Z,2.50
2023-04-05T18:17:41.346Z,2.20
2023-04-05T18:20:11.420Z,3.10
2023-04-05T18:22:40.536Z,4.13
2023-04-05T18:25:12.694Z,2.40
2023-04-05T18:27:43.360Z,2.45
2023-04-05T18:30:14.986Z,2.50
2023-04-05T18:32:44.168Z,2.50
2023-04-05T18:35:13.576Z,2.20
2023-04-05T18:37:42.738Z,2.80
2023-04-05T18:40:13.934Z,2.88
2023-04-05T18:42:44.553Z,2.92
2023-04-05T18:45:13.863Z,2.70
2023-04-05T18:47:42.915Z,2.60
2023-04-05T18:50:13.260Z,2.60
2023-04-05T18:52:42.239Z,3.13
2023-04-05T18:55:13.131Z,2.80
2023-04-05T18:57:42.265Z,2.58
2023-04-05T19:00:11.963Z,2.65
2023-04-05T19:02:42.041Z,2.80
2023-04-05T19:05:11.735Z,2.83
2023-04-05T19:07:40.783Z,2.75
2023-04-05T19:10:10.871Z,2.58
2023-04-05T19:12:42.080Z,2.55
2023-04-05T19:15:11.886Z,2.90
2023-04-05T19:17:41.247Z,2.85
2023-04-05T19:20:11.090Z,3.05
2023-04-05T19:22:40.161Z,3.10
2023-04-05T19:25:09.525Z,2.75
2023-04-05T19:27:41.173Z,3.35
2023-04-05T19:30:11.361Z,3.08
2023-04-05T19:32:40.677Z,3.10
2023-04-05T19:35:10.787Z,2.90
2023-04-05T19:37:40.048Z,2.80
2023-04-05T19:40:10.295Z,3.10
2023-04-05T19:42:48.053Z,3.30
2023-04-05T19:45:24.837Z,3.10
2023-04-05T19:47:54.277Z,3.08
2023-04-05T19:50:54.341Z,3.13
2023-04-05T19:53:49.515Z,3.08
2023-04-05T19:56:22.500Z,3.35
2023-04-05T19:58:57.773Z,3.17
2023-04-05T20:01:48.122Z,3.25
2023-04-05T20:04:19.560Z,3.30
2023-04-05T20:06:58.716Z,3.40
2023-04-05T20:09:32.098Z,3.20
2023-04-05T20:12:02.733Z,3.80
2023-04-05T20:14:41.812Z,3.25
2023-04-05T20:17:13.149Z,3.25
2023-04-05T20:19:56.784Z,3.70
2023-04-05T20:22:27.396Z,3.60
2023-04-05T20:24:56.500Z,3.42
2023-04-05T20:27:25.724Z,3.65
2023-04-05T20:29:57.591Z,3.65
2023-04-05T20:32:28.676Z,4.18
2023-04-05T20:34:57.824Z,3.28
2023-04-05T20:37:26.943Z,4.00
2023-04-05T20:39:56.069Z,4.32
2023-04-05T20:42:26.904Z,3.40
2023-04-05T20:44:58.076Z,3.80
2023-04-05T20:47:27.226Z,3.70
2023-04-05T20:49:56.271Z,3.60
2023-04-05T20:52:27.416Z,4.07
2023-04-05T20:54:57.236Z,4.18
2023-04-05T20:57:26.992Z,3.65
2023-04-05T20:59:57.708Z,4.00
2023-04-05T21:02:27.453Z,4.00
2023-04-05T21:04:57.130Z,4.25
2023-04-05T21:07:26.230Z,3.70
2023-04-05T21:09:55.286Z,3.88
2023-04-05T21:12:24.418Z,4.20
2023-04-05T21:14:53.430Z,4.00
2023-04-05T21:17:24.205Z,3.88
2023-04-05T21:19:53.218Z,3.80
2023-04-05T21:22:22.193Z,4.47
2023-04-05T21:24:51.469Z,4.05
2023-04-05T21:27:20.544Z,4.30
2023-04-05T21:29:49.610Z,4.60
2023-04-05T21:32:18.686Z,4.10
2023-04-05T21:34:49.480Z,3.75
2023-04-05T21:37:18.608Z,4.35
2023-04-05T21:39:47.683Z,4.25
2023-04-05T21:42:16.828Z,4.07
2023-04-05T21:44:46.084Z,3.78
2023-04-05T21:47:15.098Z,4.20
2023-04-05T21:49:44.098Z,4.22
2023-04-05T21:52:14.875Z,3.55
2023-04-05T21:54:43.967Z,4.15
2023-04-05T21:57:12.977Z,4.10
2023-04-05T21:59:42.163Z,4.57
2023-04-05T22:02:12.941Z,4.47
2023-04-05T22:04:42.149Z,4.28
2023-04-05T22:07:11.357Z,4.28
2023-04-05T22:09:43.225Z,4.55
2023-04-05T22:12:12.401Z,4.82
2023-04-05T22:14:41.454Z,4.72
2023-04-05T22:17:10.549Z,4.97
2023-04-05T22:19:44.473Z,4.80
2023-04-05T22:22:15.023Z,4.45
2023-04-05T22:24:46.147Z,4.65
2023-04-05T22:27:15.218Z,4.50
2023-04-05T22:29:44.338Z,5.00
2023-04-05T22:32:13.461Z,5.80
2023-04-05T22:34:42.680Z,5.38
2023-04-05T22:37:12.169Z,4.93
2023-04-05T22:39:41.211Z,4.97
2023-04-05T22:42:12.077Z,4.35
2023-04-05T22:44:41.073Z,6.05
2023-04-05T22:47:10.081Z,5.28
2023-04-05T22:49:39.235Z,5.28
2023-04-05T22:52:08.276Z,4.93
2023-04-05T22:54:37.302Z,4.95
2023-04-05T22:57:06.649Z,4.93
2023-04-05T22:59:42.432Z,5.07
2023-04-05T23:02:13.208Z,4.72
2023-04-05T23:04:42.631Z,5.30
2023-04-05T23:07:11.706Z,5.60
2023-04-05T23:09:40.792Z,5.47
2023-04-05T23:12:11.874Z,5.38
2023-04-05T23:14:43.196Z,5.47
2023-04-05T23:17:12.412Z,4.60
2023-04-05T23:19:41.486Z,5.10
2023-04-05T23:22:11.760Z,5.05
2023-04-05T23:24:40.890Z,4.85
2023-04-05T23:27:09.951Z,4.45
2023-04-05T23:29:38.978Z,5.07
2023-04-05T23:32:13.578Z,5.03
2023-04-05T23:34:43.018Z,4.53
2023-04-05T23:37:12.304Z,5.18
2023-04-05T23:39:41.512Z,4.43
2023-04-05T23:42:10.838Z,5.35
2023-04-05T23:44:39.923Z,4.80
2023-04-05T23:47:10.742Z,4.20
2023-04-05T23:49:39.766Z,5.00
2023-04-05T23:52:08.821Z,5.20
2023-04-05T23:54:38.295Z,4.60
2023-04-05T23:57:07.456Z,4.93
2023-04-05T23:59:36.579Z,4.38
